Davis Monthan Air Force Base
KDMA : now visible

Airfield :











YOU CAN JOIN US ON...

 
LOGIN :

Register | Disclaimer

   EN    FR    IT 

 









Legend :    VFR   Marginal VFR   IFR   Intensive IFR   Very Intensive IFR
Visi :
Ceiling :
>= 8 km
>= 3000ft
5 to 8 km
1000 to 3000 ft
1500m to 5 km
500 to 1000 ft
800 to 1500m
200 to 500 ft
< 800m
< 200 ft
Symbols :   Thunderstorms  Fog  Heavy snow  Heavy precipitations  Wind > 20 kt






- Airport Elevation : 2704 ft


KDMA - Davis Monthan Air Force Base

CURRENT METAR :
  • 281758Z AUTO 34003KT 10SM CLR 15/M07 A3014 RMK AO2 SLP193 T01481067 10148 20015 57009 FZRANO $

EXPIRED METARs :
  • 281658Z AUTO 00000KT 10SM CLR 13/M06 A3016 RMK AO2 SLP199 T01291057 FZRANO $
  • 281558Z AUTO 08004KT 10SM CLR 11/M06 A3016 RMK AO2 SLP201 T01141056 FZRANO $

TAF TAF KDMA
Valid from the 28 at 14:00 until the 29 at 20:00 UTC


281405Z 2814/2920 VRB06KT 9999 SKC QNH3004INS
BECMG 2821/2822 32009KT 9999 SKC QNH3002INS
BECMG 2904/2905 VRB06KT 9999 SKC QNH3006INS
BECMG 2908/2909 15009KT 9999 SCT200 QNH3002INS
BECMG 2915/2916 VRB06KT 9999 FEW200 QNH3001INS
BECMG 2918/2919 30009KT 9999 SKC QNH2998INS TX14/2823Z TN03/2814Z



MET'MAP, your aeronautical weather chart ! - Copyright ORBIFLY December 2007 - Disclaimer

ORBIFLY MET'MAP TEAM :

Programming & Development : Alexandra Zaïnal
Concept & original design : Baudouin d'Aumeries
Assistance for programming : Marc-Olivier Méhu
Technical & hardware support : Manuel Goepfert

Contact : metmap@orbifly.com




SOURCES & CREDITS :

   NOAA       Earth
Advisory